sensor_id;sensor_type;location;lat;lon;timestamp;P1;durP1;ratioP1;P2;durP2;ratioP2
12601;SDS011;30282;16.436;99.370;2023-07-31T00:01:02;9.10;;;2.63;;
12601;SDS011;30282;16.436;99.370;2023-07-31T00:03:31;7.30;;;2.17;;
12601;SDS011;30282;16.436;99.370;2023-07-31T00:06:00;11.83;;;2.23;;
12601;SDS011;30282;16.436;99.370;2023-07-31T00:08:29;6.70;;;2.83;;
12601;SDS011;30282;16.436;99.370;2023-07-31T00:11:00;8.13;;;2.40;;
12601;SDS011;30282;16.436;99.370;2023-07-31T00:13:29;7.93;;;2.63;;
12601;SDS011;30282;16.436;99.370;2023-07-31T00:15:58;10.17;;;3.03;;
12601;SDS011;30282;16.436;99.370;2023-07-31T00:18:28;7.90;;;2.87;;
12601;SDS011;30282;16.436;99.370;2023-07-31T00:20:59;11.67;;;3.00;;
12601;SDS011;30282;16.436;99.370;2023-07-31T00:23:29;7.30;;;2.43;;
12601;SDS011;30282;16.436;99.370;2023-07-31T00:26:00;8.83;;;2.50;;
12601;SDS011;30282;16.436;99.370;2023-07-31T00:28:29;11.73;;;4.10;;
12601;SDS011;30282;16.436;99.370;2023-07-31T00:30:58;8.57;;;3.73;;
12601;SDS011;30282;16.436;99.370;2023-07-31T00:33:27;8.83;;;4.30;;
12601;SDS011;30282;16.436;99.370;2023-07-31T00:35:57;8.23;;;3.30;;
12601;SDS011;30282;16.436;99.370;2023-07-31T00:38:26;10.30;;;3.83;;
12601;SDS011;30282;16.436;99.370;2023-07-31T00:40:55;12.53;;;3.47;;
12601;SDS011;30282;16.436;99.370;2023-07-31T00:43:26;9.83;;;3.57;;
12601;SDS011;30282;16.436;99.370;2023-07-31T00:45:55;12.53;;;3.40;;
12601;SDS011;30282;16.436;99.370;2023-07-31T00:48:24;11.40;;;3.80;;
12601;SDS011;30282;16.436;99.370;2023-07-31T00:50:54;8.10;;;3.60;;
12601;SDS011;30282;16.436;99.370;2023-07-31T00:53:23;8.17;;;2.93;;
12601;SDS011;30282;16.436;99.370;2023-07-31T00:55:56;6.77;;;3.00;;
12601;SDS011;30282;16.436;99.370;2023-07-31T00:58:28;15.97;;;3.73;;
12601;SDS011;30282;16.436;99.370;2023-07-31T01:00:57;10.63;;;3.00;;
12601;SDS011;30282;16.436;99.370;2023-07-31T01:03:26;7.37;;;3.13;;
12601;SDS011;30282;16.436;99.370;2023-07-31T01:06:00;13.00;;;3.90;;
12601;SDS011;30282;16.436;99.370;2023-07-31T01:08:51;13.23;;;3.07;;
12601;SDS011;30282;16.436;99.370;2023-07-31T01:11:28;20.73;;;3.47;;
12601;SDS011;30282;16.436;99.370;2023-07-31T01:14:04;19.10;;;3.37;;
12601;SDS011;30282;16.436;99.370;2023-07-31T01:16:34;9.10;;;3.37;;
12601;SDS011;30282;16.436;99.370;2023-07-31T01:19:09;10.17;;;3.07;;
12601;SDS011;30282;16.436;99.370;2023-07-31T01:21:48;7.43;;;3.13;;
12601;SDS011;30282;16.436;99.370;2023-07-31T01:24:35;13.93;;;3.80;;
12601;SDS011;30282;16.436;99.370;2023-07-31T01:27:17;7.90;;;3.70;;
12601;SDS011;30282;16.436;99.370;2023-07-31T01:29:53;9.10;;;3.43;;
12601;SDS011;30282;16.436;99.370;2023-07-31T01:32:28;6.73;;;3.07;;
12601;SDS011;30282;16.436;99.370;2023-07-31T01:34:57;6.27;;;3.10;;
12601;SDS011;30282;16.436;99.370;2023-07-31T01:37:30;8.40;;;4.40;;
12601;SDS011;30282;16.436;99.370;2023-07-31T01:39:59;8.70;;;3.80;;
12601;SDS011;30282;16.436;99.370;2023-07-31T01:42:30;11.83;;;4.90;;
12601;SDS011;30282;16.436;99.370;2023-07-31T01:44:59;9.50;;;4.80;;
12601;SDS011;30282;16.436;99.370;2023-07-31T01:47:29;9.07;;;3.80;;
12601;SDS011;30282;16.436;99.370;2023-07-31T01:49:58;11.90;;;4.10;;
12601;SDS011;30282;16.436;99.370;2023-07-31T01:52:27;8.87;;;4.00;;
12601;SDS011;30282;16.436;99.370;2023-07-31T01:54:56;8.97;;;4.03;;
12601;SDS011;30282;16.436;99.370;2023-07-31T01:57:25;12.33;;;3.60;;
12601;SDS011;30282;16.436;99.370;2023-07-31T01:59:57;11.60;;;3.63;;
12601;SDS011;30282;16.436;99.370;2023-07-31T02:02:32;10.90;;;3.47;;
12601;SDS011;30282;16.436;99.370;2023-07-31T02:05:04;8.70;;;3.50;;
12601;SDS011;30282;16.436;99.370;2023-07-31T02:07:33;7.70;;;3.20;;
12601;SDS011;30282;16.436;99.370;2023-07-31T02:10:03;9.97;;;3.40;;
12601;SDS011;30282;16.436;99.370;2023-07-31T02:12:32;7.97;;;3.17;;
12601;SDS011;30282;16.436;99.370;2023-07-31T02:15:07;9.13;;;3.70;;
12601;SDS011;30282;16.436;99.370;2023-07-31T02:17:39;7.33;;;3.20;;
12601;SDS011;30282;16.436;99.370;2023-07-31T02:20:08;9.57;;;4.17;;
12601;SDS011;30282;16.436;99.370;2023-07-31T02:22:40;16.00;;;5.63;;
12601;SDS011;30282;16.436;99.370;2023-07-31T02:25:09;9.50;;;3.47;;
12601;SDS011;30282;16.436;99.370;2023-07-31T02:27:39;9.63;;;3.83;;
12601;SDS011;30282;16.436;99.370;2023-07-31T02:30:11;9.90;;;4.00;;
12601;SDS011;30282;16.436;99.370;2023-07-31T02:32:40;10.27;;;3.77;;
12601;SDS011;30282;16.436;99.370;2023-07-31T02:35:09;12.70;;;3.87;;
12601;SDS011;30282;16.436;99.370;2023-07-31T02:37:41;12.53;;;4.50;;
12601;SDS011;30282;16.436;99.370;2023-07-31T02:40:11;10.07;;;3.60;;
12601;SDS011;30282;16.436;99.370;2023-07-31T02:42:40;11.17;;;4.63;;
12601;SDS011;30282;16.436;99.370;2023-07-31T02:45:11;12.67;;;4.47;;
12601;SDS011;30282;16.436;99.370;2023-07-31T02:47:40;10.60;;;4.30;;
12601;SDS011;30282;16.436;99.370;2023-07-31T02:50:09;12.57;;;4.10;;
12601;SDS011;30282;16.436;99.370;2023-07-31T02:52:39;9.33;;;4.00;;
12601;SDS011;30282;16.436;99.370;2023-07-31T02:55:08;9.43;;;4.10;;
12601;SDS011;30282;16.436;99.370;2023-07-31T02:57:37;8.03;;;4.23;;
12601;SDS011;30282;16.436;99.370;2023-07-31T03:00:07;11.10;;;4.27;;
12601;SDS011;30282;16.436;99.370;2023-07-31T03:02:38;8.17;;;3.73;;
12601;SDS011;30282;16.436;99.370;2023-07-31T03:05:08;12.47;;;3.80;;
12601;SDS011;30282;16.436;99.370;2023-07-31T03:07:37;10.63;;;3.23;;
12601;SDS011;30282;16.436;99.370;2023-07-31T03:10:06;15.73;;;3.60;;
12601;SDS011;30282;16.436;99.370;2023-07-31T03:12:36;6.83;;;3.23;;
12601;SDS011;30282;16.436;99.370;2023-07-31T03:15:05;7.73;;;3.03;;
12601;SDS011;30282;16.436;99.370;2023-07-31T03:17:38;10.27;;;4.70;;
12601;SDS011;30282;16.436;99.370;2023-07-31T03:20:10;9.27;;;3.57;;
12601;SDS011;30282;16.436;99.370;2023-07-31T03:22:42;14.40;;;3.57;;
12601;SDS011;30282;16.436;99.370;2023-07-31T03:25:11;9.57;;;3.70;;
12601;SDS011;30282;16.436;99.370;2023-07-31T03:27:40;7.50;;;3.40;;
12601;SDS011;30282;16.436;99.370;2023-07-31T03:30:10;7.87;;;3.53;;
12601;SDS011;30282;16.436;99.370;2023-07-31T03:32:41;9.07;;;3.67;;
12601;SDS011;30282;16.436;99.370;2023-07-31T03:35:12;12.40;;;4.07;;
12601;SDS011;30282;16.436;99.370;2023-07-31T03:37:41;14.63;;;3.70;;
12601;SDS011;30282;16.436;99.370;2023-07-31T03:40:11;12.83;;;3.77;;
12601;SDS011;30282;16.436;99.370;2023-07-31T03:42:43;7.60;;;3.03;;
12601;SDS011;30282;16.436;99.370;2023-07-31T03:45:12;7.37;;;3.40;;
12601;SDS011;30282;16.436;99.370;2023-07-31T03:47:41;6.20;;;3.07;;
12601;SDS011;30282;16.436;99.370;2023-07-31T03:50:12;11.77;;;3.37;;
12601;SDS011;30282;16.436;99.370;2023-07-31T03:52:41;9.10;;;3.40;;
12601;SDS011;30282;16.436;99.370;2023-07-31T03:55:10;10.67;;;3.60;;
12601;SDS011;30282;16.436;99.370;2023-07-31T03:57:39;11.00;;;4.00;;
12601;SDS011;30282;16.436;99.370;2023-07-31T04:00:09;7.60;;;3.67;;
12601;SDS011;30282;16.436;99.370;2023-07-31T04:02:38;10.53;;;4.23;;
12601;SDS011;30282;16.436;99.370;2023-07-31T04:05:09;9.30;;;3.70;;
12601;SDS011;30282;16.436;99.370;2023-07-31T04:07:38;7.50;;;3.80;;
12601;SDS011;30282;16.436;99.370;2023-07-31T04:10:08;10.47;;;3.80;;
12601;SDS011;30282;16.436;99.370;2023-07-31T04:12:37;10.53;;;3.27;;
12601;SDS011;30282;16.436;99.370;2023-07-31T04:15:07;8.97;;;3.07;;
12601;SDS011;30282;16.436;99.370;2023-07-31T04:17:37;10.30;;;3.60;;
12601;SDS011;30282;16.436;99.370;2023-07-31T04:20:06;7.90;;;3.07;;
12601;SDS011;30282;16.436;99.370;2023-07-31T04:22:40;6.10;;;3.20;;
12601;SDS011;30282;16.436;99.370;2023-07-31T04:25:10;7.30;;;2.90;;
12601;SDS011;30282;16.436;99.370;2023-07-31T04:27:39;11.00;;;3.57;;
12601;SDS011;30282;16.436;99.370;2023-07-31T04:30:08;9.77;;;2.93;;
12601;SDS011;30282;16.436;99.370;2023-07-31T04:32:38;9.13;;;3.07;;
12601;SDS011;30282;16.436;99.370;2023-07-31T04:35:10;7.87;;;2.90;;
12601;SDS011;30282;16.436;99.370;2023-07-31T04:37:43;8.20;;;3.53;;
12601;SDS011;30282;16.436;99.370;2023-07-31T04:40:15;11.90;;;3.83;;
12601;SDS011;30282;16.436;99.370;2023-07-31T04:42:45;9.60;;;3.00;;
12601;SDS011;30282;16.436;99.370;2023-07-31T04:45:17;9.13;;;3.13;;
12601;SDS011;30282;16.436;99.370;2023-07-31T04:47:46;7.77;;;3.07;;
12601;SDS011;30282;16.436;99.370;2023-07-31T04:50:17;13.37;;;3.80;;
12601;SDS011;30282;16.436;99.370;2023-07-31T04:52:46;8.70;;;3.27;;
12601;SDS011;30282;16.436;99.370;2023-07-31T04:55:17;9.40;;;3.43;;
12601;SDS011;30282;16.436;99.370;2023-07-31T04:57:58;8.40;;;3.60;;
12601;SDS011;30282;16.436;99.370;2023-07-31T05:00:28;11.20;;;3.50;;
12601;SDS011;30282;16.436;99.370;2023-07-31T05:02:57;12.20;;;4.43;;
12601;SDS011;30282;16.436;99.370;2023-07-31T05:05:28;14.40;;;4.77;;
12601;SDS011;30282;16.436;99.370;2023-07-31T05:07:57;9.67;;;4.30;;
12601;SDS011;30282;16.436;99.370;2023-07-31T05:10:26;9.20;;;3.37;;
12601;SDS011;30282;16.436;99.370;2023-07-31T05:12:55;10.17;;;3.67;;
12601;SDS011;30282;16.436;99.370;2023-07-31T05:15:27;12.13;;;3.47;;
12601;SDS011;30282;16.436;99.370;2023-07-31T05:17:59;12.73;;;3.33;;
12601;SDS011;30282;16.436;99.370;2023-07-31T05:20:32;8.90;;;3.40;;
12601;SDS011;30282;16.436;99.370;2023-07-31T05:23:01;10.27;;;3.40;;
12601;SDS011;30282;16.436;99.370;2023-07-31T05:25:30;12.10;;;4.07;;
12601;SDS011;30282;16.436;99.370;2023-07-31T05:28:02;9.47;;;4.73;;
12601;SDS011;30282;16.436;99.370;2023-07-31T05:30:41;9.80;;;3.93;;
12601;SDS011;30282;16.436;99.370;2023-07-31T05:33:10;8.03;;;3.20;;
12601;SDS011;30282;16.436;99.370;2023-07-31T05:35:41;10.43;;;3.33;;
12601;SDS011;30282;16.436;99.370;2023-07-31T05:38:11;9.70;;;3.77;;
12601;SDS011;30282;16.436;99.370;2023-07-31T05:40:40;10.53;;;3.70;;
12601;SDS011;30282;16.436;99.370;2023-07-31T05:43:11;10.57;;;4.57;;
12601;SDS011;30282;16.436;99.370;2023-07-31T05:45:42;9.13;;;3.63;;
12601;SDS011;30282;16.436;99.370;2023-07-31T05:48:11;11.50;;;4.40;;
12601;SDS011;30282;16.436;99.370;2023-07-31T05:50:42;12.20;;;4.97;;
12601;SDS011;30282;16.436;99.370;2023-07-31T05:53:18;13.07;;;4.10;;
12601;SDS011;30282;16.436;99.370;2023-07-31T05:55:47;7.30;;;3.37;;
12601;SDS011;30282;16.436;99.370;2023-07-31T05:58:21;12.07;;;3.50;;
12601;SDS011;30282;16.436;99.370;2023-07-31T06:00:52;7.07;;;3.50;;
12601;SDS011;30282;16.436;99.370;2023-07-31T06:03:27;12.53;;;2.87;;
12601;SDS011;30282;16.436;99.370;2023-07-31T06:06:01;9.90;;;3.23;;
12601;SDS011;30282;16.436;99.370;2023-07-31T06:08:31;8.23;;;3.63;;
12601;SDS011;30282;16.436;99.370;2023-07-31T06:11:00;9.17;;;3.00;;
12601;SDS011;30282;16.436;99.370;2023-07-31T06:13:33;8.97;;;2.90;;
12601;SDS011;30282;16.436;99.370;2023-07-31T06:16:02;11.00;;;4.53;;
12601;SDS011;30282;16.436;99.370;2023-07-31T06:18:33;7.00;;;3.33;;
12601;SDS011;30282;16.436;99.370;2023-07-31T06:21:04;11.43;;;3.83;;
12601;SDS011;30282;16.436;99.370;2023-07-31T06:23:33;11.60;;;5.00;;
12601;SDS011;30282;16.436;99.370;2023-07-31T06:26:02;8.30;;;3.70;;
12601;SDS011;30282;16.436;99.370;2023-07-31T06:28:37;9.40;;;4.17;;
12601;SDS011;30282;16.436;99.370;2023-07-31T06:31:09;9.77;;;4.90;;
12601;SDS011;30282;16.436;99.370;2023-07-31T06:33:38;10.70;;;4.20;;
12601;SDS011;30282;16.436;99.370;2023-07-31T06:36:12;11.73;;;4.93;;
12601;SDS011;30282;16.436;99.370;2023-07-31T06:38:52;11.27;;;4.67;;
12601;SDS011;30282;16.436;99.370;2023-07-31T06:41:26;8.90;;;3.93;;
12601;SDS011;30282;16.436;99.370;2023-07-31T06:43:55;8.13;;;3.67;;
12601;SDS011;30282;16.436;99.370;2023-07-31T06:46:24;12.50;;;4.33;;
12601;SDS011;30282;16.436;99.370;2023-07-31T06:48:58;13.70;;;5.17;;
12601;SDS011;30282;16.436;99.370;2023-07-31T06:51:32;10.90;;;4.10;;
12601;SDS011;30282;16.436;99.370;2023-07-31T06:54:04;8.37;;;4.10;;
12601;SDS011;30282;16.436;99.370;2023-07-31T06:56:33;12.70;;;3.40;;
12601;SDS011;30282;16.436;99.370;2023-07-31T06:59:02;15.80;;;4.10;;
12601;SDS011;30282;16.436;99.370;2023-07-31T07:01:31;8.80;;;3.90;;
12601;SDS011;30282;16.436;99.370;2023-07-31T07:04:01;11.20;;;3.87;;
12601;SDS011;30282;16.436;99.370;2023-07-31T07:06:31;11.63;;;4.50;;
12601;SDS011;30282;16.436;99.370;2023-07-31T07:09:00;9.47;;;5.00;;
12601;SDS011;30282;16.436;99.370;2023-07-31T07:11:30;8.43;;;4.23;;
12601;SDS011;30282;16.436;99.370;2023-07-31T07:13:59;15.07;;;4.30;;
12601;SDS011;30282;16.436;99.370;2023-07-31T07:16:29;11.50;;;4.20;;
12601;SDS011;30282;16.436;99.370;2023-07-31T07:18:58;9.60;;;4.30;;
12601;SDS011;30282;16.436;99.370;2023-07-31T07:21:27;9.57;;;4.30;;
12601;SDS011;30282;16.436;99.370;2023-07-31T07:23:58;11.43;;;4.00;;
12601;SDS011;30282;16.436;99.370;2023-07-31T07:26:27;11.03;;;4.23;;
12601;SDS011;30282;16.436;99.370;2023-07-31T07:28:56;11.63;;;4.47;;
12601;SDS011;30282;16.436;99.370;2023-07-31T07:31:27;12.53;;;4.30;;
12601;SDS011;30282;16.436;99.370;2023-07-31T07:33:56;8.10;;;4.73;;
12601;SDS011;30282;16.436;99.370;2023-07-31T07:36:27;8.70;;;4.23;;
12601;SDS011;30282;16.436;99.370;2023-07-31T07:38:59;12.60;;;4.13;;
12601;SDS011;30282;16.436;99.370;2023-07-31T07:41:29;9.80;;;3.57;;
12601;SDS011;30282;16.436;99.370;2023-07-31T07:43:58;7.73;;;3.57;;
12601;SDS011;30282;16.436;99.370;2023-07-31T07:46:27;9.40;;;4.67;;
12601;SDS011;30282;16.436;99.370;2023-07-31T07:48:58;10.40;;;3.70;;
12601;SDS011;30282;16.436;99.370;2023-07-31T07:51:27;8.40;;;3.97;;
12601;SDS011;30282;16.436;99.370;2023-07-31T07:53:57;10.40;;;3.50;;
12601;SDS011;30282;16.436;99.370;2023-07-31T07:56:28;9.57;;;3.97;;
12601;SDS011;30282;16.436;99.370;2023-07-31T07:58:57;16.80;;;4.80;;
12601;SDS011;30282;16.436;99.370;2023-07-31T08:01:26;10.50;;;4.23;;
12601;SDS011;30282;16.436;99.370;2023-07-31T08:03:55;9.70;;;4.23;;
12601;SDS011;30282;16.436;99.370;2023-07-31T08:06:25;9.70;;;4.87;;
12601;SDS011;30282;16.436;99.370;2023-07-31T08:08:55;12.53;;;3.97;;
12601;SDS011;30282;16.436;99.370;2023-07-31T08:11:26;11.00;;;4.60;;
12601;SDS011;30282;16.436;99.370;2023-07-31T08:13:55;16.57;;;4.90;;
12601;SDS011;30282;16.436;99.370;2023-07-31T08:16:26;12.80;;;5.07;;
12601;SDS011;30282;16.436;99.370;2023-07-31T08:18:55;11.70;;;4.00;;
12601;SDS011;30282;16.436;99.370;2023-07-31T08:21:24;7.83;;;3.67;;
12601;SDS011;30282;16.436;99.370;2023-07-31T08:23:53;9.47;;;3.73;;
12601;SDS011;30282;16.436;99.370;2023-07-31T08:26:22;11.67;;;4.10;;
12601;SDS011;30282;16.436;99.370;2023-07-31T08:28:55;10.53;;;4.20;;
12601;SDS011;30282;16.436;99.370;2023-07-31T08:31:24;10.07;;;4.17;;
12601;SDS011;30282;16.436;99.370;2023-07-31T08:33:55;26.77;;;14.73;;
12601;SDS011;30282;16.436;99.370;2023-07-31T08:36:24;34.73;;;22.83;;
12601;SDS011;30282;16.436;99.370;2023-07-31T08:38:53;107.57;;;74.50;;
12601;SDS011;30282;16.436;99.370;2023-07-31T08:41:25;91.33;;;59.43;;
12601;SDS011;30282;16.436;99.370;2023-07-31T08:43:56;23.43;;;16.00;;
12601;SDS011;30282;16.436;99.370;2023-07-31T08:46:32;22.87;;;9.63;;
12601;SDS011;30282;16.436;99.370;2023-07-31T08:49:02;11.33;;;3.67;;
12601;SDS011;30282;16.436;99.370;2023-07-31T08:51:34;8.70;;;3.77;;
12601;SDS011;30282;16.436;99.370;2023-07-31T08:54:03;7.63;;;3.90;;
12601;SDS011;30282;16.436;99.370;2023-07-31T08:56:33;8.40;;;3.93;;
12601;SDS011;30282;16.436;99.370;2023-07-31T08:59:04;7.40;;;3.63;;
12601;SDS011;30282;16.436;99.370;2023-07-31T09:01:35;13.17;;;4.90;;
12601;SDS011;30282;16.436;99.370;2023-07-31T09:04:07;10.63;;;4.10;;
12601;SDS011;30282;16.436;99.370;2023-07-31T09:06:38;8.37;;;4.23;;
12601;SDS011;30282;16.436;99.370;2023-07-31T09:09:11;11.10;;;5.10;;
12601;SDS011;30282;16.436;99.370;2023-07-31T09:11:43;15.00;;;4.13;;
12601;SDS011;30282;16.436;99.370;2023-07-31T09:14:14;11.50;;;4.80;;
12601;SDS011;30282;16.436;99.370;2023-07-31T09:16:53;13.10;;;4.70;;
12601;SDS011;30282;16.436;99.370;2023-07-31T09:19:27;13.07;;;4.67;;
12601;SDS011;30282;16.436;99.370;2023-07-31T09:21:57;9.97;;;4.50;;
12601;SDS011;30282;16.436;99.370;2023-07-31T09:24:26;13.87;;;4.83;;
12601;SDS011;30282;16.436;99.370;2023-07-31T09:26:56;14.00;;;5.83;;
12601;SDS011;30282;16.436;99.370;2023-07-31T09:29:30;16.43;;;4.70;;
12601;SDS011;30282;16.436;99.370;2023-07-31T09:31:59;11.40;;;4.10;;
12601;SDS011;30282;16.436;99.370;2023-07-31T09:34:29;10.80;;;4.57;;
12601;SDS011;30282;16.436;99.370;2023-07-31T09:37:04;9.80;;;4.50;;
12601;SDS011;30282;16.436;99.370;2023-07-31T09:39:34;10.83;;;3.97;;
12601;SDS011;30282;16.436;99.370;2023-07-31T09:42:24;17.23;;;4.83;;
12601;SDS011;30282;16.436;99.370;2023-07-31T09:44:56;12.00;;;4.50;;
12601;SDS011;30282;16.436;99.370;2023-07-31T09:47:36;9.13;;;4.57;;
12601;SDS011;30282;16.436;99.370;2023-07-31T09:50:07;13.80;;;4.97;;
12601;SDS011;30282;16.436;99.370;2023-07-31T09:52:38;12.10;;;5.03;;
12601;SDS011;30282;16.436;99.370;2023-07-31T09:55:07;13.30;;;4.47;;
12601;SDS011;30282;16.436;99.370;2023-07-31T09:57:37;9.70;;;4.20;;
12601;SDS011;30282;16.436;99.370;2023-07-31T10:00:11;7.70;;;4.53;;
12601;SDS011;30282;16.436;99.370;2023-07-31T10:02:41;10.47;;;4.47;;
12601;SDS011;30282;16.436;99.370;2023-07-31T10:05:14;11.40;;;4.50;;
12601;SDS011;30282;16.436;99.370;2023-07-31T10:07:45;8.70;;;3.83;;
12601;SDS011;30282;16.436;99.370;2023-07-31T10:10:19;13.90;;;4.80;;
12601;SDS011;30282;16.436;99.370;2023-07-31T10:12:49;11.83;;;5.13;;
12601;SDS011;30282;16.436;99.370;2023-07-31T10:15:22;14.53;;;4.60;;
12601;SDS011;30282;16.436;99.370;2023-07-31T10:17:51;8.93;;;4.90;;
12601;SDS011;30282;16.436;99.370;2023-07-31T10:20:21;14.63;;;5.27;;
12601;SDS011;30282;16.436;99.370;2023-07-31T10:22:51;15.90;;;5.13;;
12601;SDS011;30282;16.436;99.370;2023-07-31T10:25:22;7.93;;;4.40;;
12601;SDS011;30282;16.436;99.370;2023-07-31T10:27:51;12.23;;;4.50;;
12601;SDS011;30282;16.436;99.370;2023-07-31T10:30:24;15.13;;;4.80;;
12601;SDS011;30282;16.436;99.370;2023-07-31T10:32:56;7.80;;;3.93;;
12601;SDS011;30282;16.436;99.370;2023-07-31T10:35:26;10.87;;;4.33;;
12601;SDS011;30282;16.436;99.370;2023-07-31T10:37:56;16.43;;;4.87;;
12601;SDS011;30282;16.436;99.370;2023-07-31T10:40:39;10.47;;;4.37;;
12601;SDS011;30282;16.436;99.370;2023-07-31T10:43:08;11.57;;;3.73;;
12601;SDS011;30282;16.436;99.370;2023-07-31T10:45:52;17.43;;;5.43;;
12601;SDS011;30282;16.436;99.370;2023-07-31T10:48:21;11.40;;;5.23;;
12601;SDS011;30282;16.436;99.370;2023-07-31T10:50:51;9.03;;;4.33;;
12601;SDS011;30282;16.436;99.370;2023-07-31T10:53:23;13.73;;;4.37;;
12601;SDS011;30282;16.436;99.370;2023-07-31T10:55:53;14.43;;;4.03;;
12601;SDS011;30282;16.436;99.370;2023-07-31T10:58:26;7.73;;;3.73;;
12601;SDS011;30282;16.436;99.370;2023-07-31T11:00:59;11.23;;;5.17;;
12601;SDS011;30282;16.436;99.370;2023-07-31T11:03:40;8.03;;;4.20;;
12601;SDS011;30282;16.436;99.370;2023-07-31T11:06:10;10.43;;;4.40;;
12601;SDS011;30282;16.436;99.370;2023-07-31T11:08:41;11.20;;;5.03;;
12601;SDS011;30282;16.436;99.370;2023-07-31T11:11:12;12.83;;;4.13;;
12601;SDS011;30282;16.436;99.370;2023-07-31T11:13:44;10.27;;;5.00;;
12601;SDS011;30282;16.436;99.370;2023-07-31T11:16:16;18.27;;;6.33;;
12601;SDS011;30282;16.436;99.370;2023-07-31T11:18:46;11.40;;;4.40;;
12601;SDS011;30282;16.436;99.370;2023-07-31T11:21:17;18.23;;;4.47;;
12601;SDS011;30282;16.436;99.370;2023-07-31T11:23:47;18.67;;;5.67;;
12601;SDS011;30282;16.436;99.370;2023-07-31T11:26:18;11.27;;;5.13;;
12601;SDS011;30282;16.436;99.370;2023-07-31T11:28:47;15.27;;;5.57;;
12601;SDS011;30282;16.436;99.370;2023-07-31T11:31:18;15.77;;;5.63;;
12601;SDS011;30282;16.436;99.370;2023-07-31T11:33:48;27.90;;;7.30;;
12601;SDS011;30282;16.436;99.370;2023-07-31T11:36:17;11.40;;;5.17;;
12601;SDS011;30282;16.436;99.370;2023-07-31T11:38:47;10.90;;;5.63;;
12601;SDS011;30282;16.436;99.370;2023-07-31T11:41:16;18.90;;;5.97;;
12601;SDS011;30282;16.436;99.370;2023-07-31T11:43:45;19.93;;;6.50;;
12601;SDS011;30282;16.436;99.370;2023-07-31T11:46:15;17.00;;;6.07;;
12601;SDS011;30282;16.436;99.370;2023-07-31T11:48:46;18.53;;;7.07;;
12601;SDS011;30282;16.436;99.370;2023-07-31T11:51:15;18.73;;;6.47;;
12601;SDS011;30282;16.436;99.370;2023-07-31T11:53:49;20.50;;;8.50;;
12601;SDS011;30282;16.436;99.370;2023-07-31T11:56:20;29.47;;;7.57;;
12601;SDS011;30282;16.436;99.370;2023-07-31T11:58:51;19.27;;;7.40;;
12601;SDS011;30282;16.436;99.370;2023-07-31T12:01:21;60.67;;;27.90;;
12601;SDS011;30282;16.436;99.370;2023-07-31T12:03:53;34.60;;;19.27;;
12601;SDS011;30282;16.436;99.370;2023-07-31T12:06:32;30.50;;;16.47;;
12601;SDS011;30282;16.436;99.370;2023-07-31T12:09:03;35.77;;;15.53;;
12601;SDS011;30282;16.436;99.370;2023-07-31T12:11:42;31.87;;;16.40;;
12601;SDS011;30282;16.436;99.370;2023-07-31T12:14:19;25.50;;;11.00;;
12601;SDS011;30282;16.436;99.370;2023-07-31T12:16:53;25.80;;;12.80;;
12601;SDS011;30282;16.436;99.370;2023-07-31T12:19:24;25.73;;;11.70;;
12601;SDS011;30282;16.436;99.370;2023-07-31T12:21:55;45.10;;;24.73;;
12601;SDS011;30282;16.436;99.370;2023-07-31T12:24:26;27.53;;;12.80;;
12601;SDS011;30282;16.436;99.370;2023-07-31T12:26:55;27.37;;;12.57;;
12601;SDS011;30282;16.436;99.370;2023-07-31T12:29:33;28.07;;;13.00;;
12601;SDS011;30282;16.436;99.370;2023-07-31T12:32:03;30.70;;;14.97;;
12601;SDS011;30282;16.436;99.370;2023-07-31T12:34:48;30.90;;;16.00;;
12601;SDS011;30282;16.436;99.370;2023-07-31T12:37:18;38.87;;;19.97;;
12601;SDS011;30282;16.436;99.370;2023-07-31T12:39:48;22.80;;;11.50;;
12601;SDS011;30282;16.436;99.370;2023-07-31T12:42:17;26.10;;;12.27;;
12601;SDS011;30282;16.436;99.370;2023-07-31T12:44:46;24.87;;;7.30;;
12601;SDS011;30282;16.436;99.370;2023-07-31T12:47:15;17.63;;;8.40;;
12601;SDS011;30282;16.436;99.370;2023-07-31T12:49:44;21.63;;;10.00;;
12601;SDS011;30282;16.436;99.370;2023-07-31T12:52:15;23.10;;;9.40;;
12601;SDS011;30282;16.436;99.370;2023-07-31T12:54:44;15.43;;;7.20;;
12601;SDS011;30282;16.436;99.370;2023-07-31T12:57:14;14.53;;;7.13;;
12601;SDS011;30282;16.436;99.370;2023-07-31T12:59:43;16.63;;;7.10;;
12601;SDS011;30282;16.436;99.370;2023-07-31T13:02:12;17.93;;;6.53;;
12601;SDS011;30282;16.436;99.370;2023-07-31T13:04:41;17.77;;;7.07;;
12601;SDS011;30282;16.436;99.370;2023-07-31T13:07:12;14.80;;;7.00;;
12601;SDS011;30282;16.436;99.370;2023-07-31T13:09:41;14.03;;;6.80;;
12601;SDS011;30282;16.436;99.370;2023-07-31T13:12:10;12.90;;;6.63;;
12601;SDS011;30282;16.436;99.370;2023-07-31T13:14:39;22.57;;;7.80;;
12601;SDS011;30282;16.436;99.370;2023-07-31T13:17:08;15.40;;;8.40;;
12601;SDS011;30282;16.436;99.370;2023-07-31T13:19:37;23.83;;;10.13;;
12601;SDS011;30282;16.436;99.370;2023-07-31T13:22:07;26.23;;;11.40;;
12601;SDS011;30282;16.436;99.370;2023-07-31T13:24:42;29.23;;;13.23;;
12601;SDS011;30282;16.436;99.370;2023-07-31T13:27:11;35.20;;;14.67;;
12601;SDS011;30282;16.436;99.370;2023-07-31T13:29:42;26.57;;;12.67;;
12601;SDS011;30282;16.436;99.370;2023-07-31T13:32:11;22.63;;;9.43;;
12601;SDS011;30282;16.436;99.370;2023-07-31T13:34:41;22.07;;;9.97;;
12601;SDS011;30282;16.436;99.370;2023-07-31T13:37:10;24.93;;;9.30;;
12601;SDS011;30282;16.436;99.370;2023-07-31T13:39:41;20.60;;;8.90;;
12601;SDS011;30282;16.436;99.370;2023-07-31T13:42:10;22.73;;;11.67;;
12601;SDS011;30282;16.436;99.370;2023-07-31T13:44:39;25.03;;;10.60;;
12601;SDS011;30282;16.436;99.370;2023-07-31T13:47:10;17.10;;;8.23;;
12601;SDS011;30282;16.436;99.370;2023-07-31T13:49:40;19.47;;;8.43;;
12601;SDS011;30282;16.436;99.370;2023-07-31T13:52:09;16.83;;;9.53;;
12601;SDS011;30282;16.436;99.370;2023-07-31T13:54:40;23.57;;;9.03;;
12601;SDS011;30282;16.436;99.370;2023-07-31T13:57:10;17.77;;;8.80;;
12601;SDS011;30282;16.436;99.370;2023-07-31T13:59:39;28.07;;;13.80;;
12601;SDS011;30282;16.436;99.370;2023-07-31T14:02:08;29.77;;;15.00;;
12601;SDS011;30282;16.436;99.370;2023-07-31T14:04:37;23.33;;;13.53;;
12601;SDS011;30282;16.436;99.370;2023-07-31T14:07:06;27.70;;;13.50;;
12601;SDS011;30282;16.436;99.370;2023-07-31T14:09:37;23.03;;;12.13;;
12601;SDS011;30282;16.436;99.370;2023-07-31T14:12:07;29.47;;;10.63;;
12601;SDS011;30282;16.436;99.370;2023-07-31T14:14:36;27.60;;;13.10;;
12601;SDS011;30282;16.436;99.370;2023-07-31T14:17:11;23.87;;;11.10;;
12601;SDS011;30282;16.436;99.370;2023-07-31T14:19:43;14.63;;;8.00;;
12601;SDS011;30282;16.436;99.370;2023-07-31T14:22:12;21.40;;;10.17;;
12601;SDS011;30282;16.436;99.370;2023-07-31T14:25:01;27.87;;;12.27;;
12601;SDS011;30282;16.436;99.370;2023-07-31T14:27:30;32.03;;;14.57;;
12601;SDS011;30282;16.436;99.370;2023-07-31T14:29:59;30.70;;;12.23;;
12601;SDS011;30282;16.436;99.370;2023-07-31T14:32:32;24.03;;;11.10;;
12601;SDS011;30282;16.436;99.370;2023-07-31T14:35:07;26.70;;;10.30;;
12601;SDS011;30282;16.436;99.370;2023-07-31T14:37:36;23.57;;;12.20;;
12601;SDS011;30282;16.436;99.370;2023-07-31T14:40:11;23.93;;;10.87;;
12601;SDS011;30282;16.436;99.370;2023-07-31T14:42:44;18.03;;;9.17;;
12601;SDS011;30282;16.436;99.370;2023-07-31T14:45:13;25.23;;;11.40;;